Time,TemperatureF,DewpointF,PressureIn,WindDirection,WindDirectionDegrees,WindSpeedMPH,WindSpeedGustMPH,Humidity,HourlyPrecipIn,Conditions,Clouds,dailyrainin,SoftwareType,DateUTC
2013-02-25 00:02:00,29.0,28.0,30.11,ENE,74,3.0,7.0,97,0.00,,,0.00,,2013-02-25 06:02:00,
2013-02-25 00:11:00,29.0,28.0,30.11,ENE,74,3.0,7.0,97,0.00,,,0.00,,2013-02-25 06:11:00,
2013-02-25 00:21:00,29.0,28.0,30.11,East,82,0.0,6.0,97,0.00,,,0.00,,2013-02-25 06:21:00,
2013-02-25 00:32:00,29.0,28.0,30.11,East,82,0.0,0.0,97,0.00,,,0.00,,2013-02-25 06:32:00,
2013-02-25 00:42:00,29.0,28.0,30.11,East,82,0.0,0.0,97,0.00,,,0.00,,2013-02-25 06:42:00,
2013-02-25 00:51:00,29.0,29.0,30.11,East,82,0.0,0.0,98,0.00,,,0.00,,2013-02-25 06:51:00,
2013-02-25 01:01:00,30.0,29.0,30.10,NE,41,2.0,6.0,98,0.00,,,0.00,,2013-02-25 07:01:00,
2013-02-25 01:11:00,30.0,29.0,30.11,ENE,78,1.0,6.0,98,0.00,,,0.00,,2013-02-25 07:11:00,
2013-02-25 01:21:00,30.0,29.0,30.11,ENE,78,1.0,6.0,98,0.00,,,0.00,,2013-02-25 07:21:00,
2013-02-25 01:31:00,28.0,28.0,30.11,East,83,6.0,9.0,98,0.00,,,0.00,,2013-02-25 07:31:00,
2013-02-25 01:41:00,28.0,28.0,30.11,East,83,6.0,9.0,98,0.00,,,0.00,,2013-02-25 07:41:00,
2013-02-25 01:51:00,28.0,28.0,30.11,East,87,7.0,10.0,98,0.00,,,0.00,,2013-02-25 07:51:00,
2013-02-25 02:01:00,28.0,28.0,30.11,ENE,78,0.0,0.0,98,0.00,,,0.00,,2013-02-25 08:01:00,
2013-02-25 02:11:00,28.0,28.0,30.11,ENE,78,0.0,0.0,98,0.00,,,0.00,,2013-02-25 08:11:00,
2013-02-25 02:21:00,28.0,27.0,30.11,ENE,78,0.0,0.0,97,0.00,,,0.00,,2013-02-25 08:21:00,
2013-02-25 02:32:00,29.0,28.0,30.11,ENE,78,0.0,0.0,97,0.00,,,0.00,,2013-02-25 08:32:00,
2013-02-25 02:41:00,29.0,28.0,30.11,ENE,78,0.0,0.0,97,0.00,,,0.00,,2013-02-25 08:41:00,
2013-02-25 02:52:00,29.0,28.0,30.11,ENE,78,0.0,0.0,97,0.00,,,0.00,,2013-02-25 08:52:00,
2013-02-25 03:01:00,28.0,27.0,30.11,ENE,60,3.0,6.0,97,0.00,,,0.00,,2013-02-25 09:01:00,
2013-02-25 03:12:00,28.0,27.0,30.11,ENE,60,3.0,6.0,97,0.00,,,0.00,,2013-02-25 09:12:00,
2013-02-25 03:21:00,28.0,27.0,30.11,ENE,62,0.0,0.0,97,0.00,,,0.00,,2013-02-25 09:21:00,
2013-02-25 03:32:00,28.0,27.0,30.11,NE,38,0.0,0.0,97,0.00,,,0.00,,2013-02-25 09:32:00,
2013-02-25 03:41:00,28.0,27.0,30.11,NE,38,0.0,0.0,97,0.00,,,0.00,,2013-02-25 09:41:00,
2013-02-25 03:51:00,28.0,27.0,30.11,East,86,5.0,7.0,97,0.00,,,0.00,,2013-02-25 09:51:00,
2013-02-25 04:01:00,27.0,26.0,30.10,East,89,6.0,10.0,97,0.00,,,0.00,,2013-02-25 10:01:00,
2013-02-25 04:11:00,27.0,26.0,30.10,East,89,6.0,10.0,97,0.00,,,0.00,,2013-02-25 10:11:00,
2013-02-25 04:21:00,27.0,26.0,30.10,East,85,6.0,9.0,97,0.00,,,0.00,,2013-02-25 10:21:00,
2013-02-25 04:32:00,27.0,27.0,30.10,East,93,6.0,9.0,98,0.00,,,0.00,,2013-02-25 10:32:00,
2013-02-25 04:42:00,27.0,27.0,30.10,East,93,6.0,9.0,98,0.00,,,0.00,,2013-02-25 10:42:00,
2013-02-25 04:52:00,27.0,27.0,30.11,East,85,6.0,9.0,98,0.00,,,0.00,,2013-02-25 10:52:00,
2013-02-25 05:01:00,27.0,27.0,30.11,East,100,6.0,8.0,98,0.00,,,0.00,,2013-02-25 11:01:00,
2013-02-25 05:11:00,27.0,27.0,30.11,East,100,6.0,8.0,98,0.00,,,0.00,,2013-02-25 11:11:00,
2013-02-25 05:21:00,27.0,27.0,30.12,East,80,4.0,6.0,98,0.00,,,0.00,,2013-02-25 11:21:00,
2013-02-25 05:32:00,27.0,27.0,30.13,East,100,3.0,6.0,98,0.00,,,0.00,,2013-02-25 11:32:00,
2013-02-25 05:42:00,27.0,27.0,30.13,East,100,3.0,6.0,98,0.00,,,0.00,,2013-02-25 11:42:00,
2013-02-25 05:52:00,26.0,26.0,30.13,East,88,5.0,6.0,98,0.00,,,0.00,,2013-02-25 11:52:00,
2013-02-25 06:02:00,26.0,26.0,30.13,ENE,73,0.0,5.0,98,0.00,,,0.00,,2013-02-25 12:02:00,
2013-02-25 06:11:00,26.0,26.0,30.13,ENE,73,0.0,5.0,98,0.00,,,0.00,,2013-02-25 12:11:00,
2013-02-25 06:21:00,27.0,27.0,30.12,NE,50,6.0,9.0,98,0.00,,,0.00,,2013-02-25 12:21:00,
2013-02-25 06:32:00,27.0,27.0,30.11,ENE,74,12.0,14.0,98,0.00,,,0.00,,2013-02-25 12:32:00,
2013-02-25 06:42:00,27.0,27.0,30.11,ENE,74,12.0,14.0,98,0.00,,,0.00,,2013-02-25 12:42:00,
2013-02-25 06:53:00,27.0,26.0,30.11,ENE,74,11.0,14.0,97,0.00,,,0.00,,2013-02-25 12:53:00,
2013-02-25 07:02:00,27.0,26.0,30.10,East,87,10.0,15.0,97,0.00,,,0.00,,2013-02-25 13:02:00,
2013-02-25 07:12:00,27.0,26.0,30.10,East,87,10.0,15.0,97,0.00,,,0.00,,2013-02-25 13:12:00,
2013-02-25 07:22:00,27.0,26.0,30.10,East,87,10.0,15.0,97,0.00,,,0.00,,2013-02-25 13:22:00,
2013-02-25 07:32:00,28.0,27.0,30.10,East,96,8.0,13.0,97,0.00,,,0.00,,2013-02-25 13:32:00,
2013-02-25 07:42:00,28.0,27.0,30.10,East,96,8.0,13.0,97,0.00,,,0.00,,2013-02-25 13:42:00,
2013-02-25 07:52:00,28.0,27.0,30.10,East,89,9.0,14.0,97,0.00,,,0.00,,2013-02-25 13:52:00,
2013-02-25 08:03:00,29.0,28.0,30.10,East,89,9.0,15.0,97,0.00,,,0.00,,2013-02-25 14:03:00,
2013-02-25 08:17:00,29.0,28.0,30.10,East,89,9.0,15.0,97,0.00,,,0.00,,2013-02-25 14:17:00,
2013-02-25 08:32:00,31.0,30.0,30.11,East,90,9.0,14.0,96,0.00,,,0.00,,2013-02-25 14:32:00,
2013-02-25 08:42:00,31.0,30.0,30.11,East,90,9.0,14.0,96,0.00,,,0.00,,2013-02-25 14:42:00,
2013-02-25 08:52:00,32.0,30.0,30.10,East,82,11.0,16.0,94,0.00,,,0.00,,2013-02-25 14:52:00,
2013-02-25 09:02:00,33.0,31.0,30.11,East,86,12.0,15.0,93,0.00,,,0.00,,2013-02-25 15:02:00,
2013-02-25 09:11:00,33.0,31.0,30.11,East,86,12.0,15.0,93,0.00,,,0.00,,2013-02-25 15:11:00,
2013-02-25 09:21:00,34.0,32.0,30.10,ESE,114,9.0,15.0,94,0.00,,,0.00,,2013-02-25 15:21:00,
2013-02-25 09:32:00,35.0,33.0,30.09,East,87,12.0,17.0,91,0.00,,,0.00,,2013-02-25 15:32:00,
2013-02-25 09:41:00,35.0,33.0,30.09,East,87,12.0,17.0,91,0.00,,,0.00,,2013-02-25 15:41:00,
2013-02-25 09:51:00,35.0,32.0,30.09,East,83,12.0,18.0,90,0.00,,,0.00,,2013-02-25 15:51:00,
2013-02-25 10:02:00,37.0,34.0,30.09,ENE,74,13.0,20.0,88,0.00,,,0.00,,2013-02-25 16:02:00,
2013-02-25 10:11:00,37.0,34.0,30.09,ENE,74,13.0,20.0,88,0.00,,,0.00,,2013-02-25 16:11:00,
2013-02-25 10:21:00,37.0,34.0,30.09,East,81,10.0,22.0,89,0.00,,,0.00,,2013-02-25 16:21:00,
2013-02-25 10:32:00,38.0,34.0,30.09,ENE,78,13.0,22.0,86,0.00,,,0.00,,2013-02-25 16:32:00,
2013-02-25 10:42:00,38.0,34.0,30.09,ENE,78,13.0,22.0,86,0.00,,,0.00,,2013-02-25 16:42:00,
2013-02-25 10:51:00,39.0,35.0,30.09,East,91,12.0,18.0,86,0.00,,,0.00,,2013-02-25 16:51:00,
2013-02-25 11:01:00,39.0,34.0,30.11,East,90,12.0,21.0,83,0.00,,,0.00,,2013-02-25 17:01:00,
2013-02-25 11:11:00,39.0,34.0,30.11,East,90,12.0,21.0,83,0.00,,,0.00,,2013-02-25 17:11:00,
2013-02-25 11:21:00,40.0,34.0,30.11,ESE,115,13.0,21.0,80,0.00,,,0.00,,2013-02-25 17:21:00,
2013-02-25 11:32:00,40.0,35.0,30.10,ESE,105,12.0,18.0,81,0.00,,,0.00,,2013-02-25 17:32:00,
2013-02-25 11:41:00,40.0,35.0,30.10,ESE,105,12.0,18.0,81,0.00,,,0.00,,2013-02-25 17:41:00,
2013-02-25 11:52:00,40.0,35.0,30.10,ESE,115,12.0,21.0,82,0.00,,,0.00,,2013-02-25 17:52:00,
2013-02-25 12:01:00,41.0,35.0,30.10,ESE,111,12.0,17.0,80,0.00,,,0.00,,2013-02-25 18:01:00,
2013-02-25 12:12:00,41.0,35.0,30.10,ESE,111,12.0,17.0,80,0.00,,,0.00,,2013-02-25 18:12:00,
2013-02-25 12:21:00,41.0,36.0,30.09,East,84,13.0,21.0,81,0.00,,,0.00,,2013-02-25 18:21:00,
2013-02-25 12:32:00,41.0,35.0,30.09,ESE,107,11.0,21.0,79,0.00,,,0.00,,2013-02-25 18:32:00,
2013-02-25 12:41:00,41.0,35.0,30.09,ESE,107,11.0,21.0,79,0.00,,,0.00,,2013-02-25 18:41:00,
2013-02-25 12:51:00,41.0,35.0,30.08,East,81,12.0,30.0,79,0.00,,,0.00,,2013-02-25 18:51:00,
2013-02-25 13:01:00,42.0,36.0,30.06,East,95,13.0,24.0,79,0.00,,,0.00,,2013-02-25 19:01:00,
2013-02-25 13:11:00,42.0,36.0,30.06,East,95,13.0,24.0,79,0.00,,,0.00,,2013-02-25 19:11:00,
2013-02-25 13:21:00,42.0,36.0,30.06,ENE,68,14.0,20.0,78,0.00,,,0.00,,2013-02-25 19:21:00,
2013-02-25 13:32:00,42.0,35.0,30.04,ENE,72,16.0,22.0,76,0.00,,,0.00,,2013-02-25 19:32:00,
2013-02-25 13:42:00,42.0,35.0,30.04,ENE,72,16.0,22.0,76,0.00,,,0.00,,2013-02-25 19:42:00,
2013-02-25 13:52:00,42.0,36.0,30.05,ESE,108,12.0,21.0,78,0.00,,,0.00,,2013-02-25 19:52:00,
2013-02-25 14:01:00,43.0,37.0,30.05,East,89,9.0,18.0,78,0.00,,,0.00,,2013-02-25 20:01:00,
2013-02-25 14:11:00,43.0,37.0,30.05,East,89,9.0,18.0,78,0.00,,,0.00,,2013-02-25 20:11:00,
2013-02-25 14:21:00,43.0,37.0,30.05,East,83,12.0,21.0,78,0.00,,,0.00,,2013-02-25 20:21:00,
2013-02-25 14:32:00,43.0,36.0,30.05,ENE,66,13.0,16.0,76,0.00,,,0.00,,2013-02-25 20:32:00,
2013-02-25 14:41:00,43.0,36.0,30.05,ENE,66,13.0,16.0,76,0.00,,,0.00,,2013-02-25 20:41:00,
2013-02-25 14:52:00,43.0,36.0,30.04,NE,53,13.0,20.0,75,0.00,,,0.00,,2013-02-25 20:52:00,
2013-02-25 15:01:00,43.0,36.0,30.03,ENE,63,14.0,20.0,76,0.00,,,0.00,,2013-02-25 21:01:00,
2013-02-25 15:11:00,43.0,36.0,30.03,ENE,63,14.0,20.0,76,0.00,,,0.00,,2013-02-25 21:11:00,
2013-02-25 15:21:00,42.0,35.0,30.02,NE,50,12.0,20.0,77,0.00,,,0.00,,2013-02-25 21:21:00,
2013-02-25 15:32:00,42.0,36.0,30.01,ENE,63,14.0,21.0,79,0.00,,,0.00,,2013-02-25 21:32:00,
2013-02-25 15:42:00,42.0,36.0,30.01,ENE,63,14.0,21.0,79,0.00,,,0.00,,2013-02-25 21:42:00,
2013-02-25 15:51:00,42.0,36.0,30.00,ENE,64,13.0,22.0,78,0.00,,,0.00,,2013-02-25 21:51:00,
2013-02-25 16:01:00,42.0,36.0,29.99,ENE,71,14.0,24.0,80,0.00,,,0.00,,2013-02-25 22:01:00,
2013-02-25 16:11:00,42.0,36.0,29.99,ENE,71,14.0,24.0,80,0.00,,,0.00,,2013-02-25 22:11:00,
2013-02-25 16:21:00,42.0,37.0,29.99,ENE,60,12.0,22.0,81,0.00,,,0.00,,2013-02-25 22:21:00,
2013-02-25 16:32:00,41.0,36.0,29.98,NE,45,15.0,22.0,82,0.00,,,0.00,,2013-02-25 22:32:00,
2013-02-25 16:42:00,41.0,36.0,29.98,NE,45,15.0,22.0,82,0.00,,,0.00,,2013-02-25 22:42:00,
2013-02-25 16:51:00,41.0,36.0,29.98,NE,45,12.0,23.0,83,0.00,,,0.00,,2013-02-25 22:51:00,
2013-02-25 17:01:00,40.0,36.0,29.98,NE,39,14.0,23.0,85,0.00,,,0.00,,2013-02-25 23:01:00,
2013-02-25 17:11:00,40.0,36.0,29.98,NE,39,14.0,23.0,85,0.00,,,0.00,,2013-02-25 23:11:00,
2013-02-25 17:22:00,39.0,35.0,29.98,NE,48,14.0,24.0,86,0.00,,,0.00,,2013-02-25 23:22:00,
2013-02-25 17:31:00,38.0,34.0,29.96,NE,48,14.0,22.0,87,0.00,,,0.00,,2013-02-25 23:31:00,
2013-02-25 17:41:00,38.0,34.0,29.96,NE,48,14.0,22.0,87,0.00,,,0.00,,2013-02-25 23:41:00,
2013-02-25 17:52:00,38.0,34.0,29.97,NE,50,13.0,20.0,87,0.00,,,0.00,,2013-02-25 23:52:00,
2013-02-25 18:01:00,38.0,35.0,29.96,NE,55,12.0,18.0,88,0.00,,,0.00,,2013-02-26 00:01:00,
2013-02-25 18:12:00,38.0,35.0,29.96,NE,55,12.0,18.0,88,0.00,,,0.00,,2013-02-26 00:12:00,
2013-02-25 18:22:00,37.0,34.0,29.96,NNE,32,12.0,20.0,89,0.00,,,0.00,,2013-02-26 00:22:00,
2013-02-25 18:32:00,36.0,34.0,29.95,NE,36,10.0,16.0,91,0.00,,,0.00,,2013-02-26 00:32:00,
2013-02-25 18:42:00,36.0,34.0,29.95,NE,36,10.0,16.0,91,0.00,,,0.00,,2013-02-26 00:42:00,
2013-02-25 18:51:00,36.0,34.0,29.96,NE,49,9.0,18.0,91,0.00,,,0.00,,2013-02-26 00:51:00,
2013-02-25 19:02:00,35.0,33.0,29.95,NE,39,13.0,18.0,91,0.00,,,0.00,,2013-02-26 01:02:00,
2013-02-25 19:11:00,35.0,33.0,29.95,NE,39,13.0,18.0,91,0.00,,,0.00,,2013-02-26 01:11:00,
2013-02-25 19:21:00,35.0,33.0,29.95,NNE,28,11.0,18.0,92,0.00,,,0.00,,2013-02-26 01:21:00,
2013-02-25 19:31:00,34.0,33.0,29.95,NNE,26,10.0,15.0,95,0.00,,,0.00,,2013-02-26 01:31:00,
2013-02-25 19:41:00,34.0,33.0,29.95,NNE,26,10.0,15.0,95,0.00,,,0.00,,2013-02-26 01:41:00,
2013-02-25 19:51:00,34.0,33.0,29.95,NE,38,9.0,14.0,95,0.00,,,0.00,,2013-02-26 01:51:00,
2013-02-25 20:01:00,34.0,33.0,29.94,NE,52,7.0,15.0,95,0.00,,,0.00,,2013-02-26 02:01:00,
2013-02-25 20:11:00,34.0,33.0,29.94,NE,52,7.0,15.0,95,0.00,,,0.00,,2013-02-26 02:11:00,
2013-02-25 20:21:00,34.0,33.0,29.94,ENE,62,9.0,15.0,95,0.00,,,0.00,,2013-02-26 02:21:00,
2013-02-25 20:32:00,35.0,34.0,29.94,NNE,33,8.0,16.0,95,0.00,,,0.00,,2013-02-26 02:32:00,
2013-02-25 20:42:00,35.0,34.0,29.94,NNE,33,8.0,16.0,95,0.00,,,0.00,,2013-02-26 02:42:00,
2013-02-25 20:52:00,35.0,34.0,29.94,NE,53,9.0,17.0,95,0.00,,,0.00,,2013-02-26 02:52:00,
2013-02-25 21:02:00,35.0,33.0,29.96,NE,55,16.0,25.0,93,0.00,,,0.00,,2013-02-26 03:02:00,
2013-02-25 21:11:00,35.0,33.0,29.96,NE,55,16.0,25.0,93,0.00,,,0.00,,2013-02-26 03:11:00,
2013-02-25 21:21:00,35.0,33.0,29.96,ENE,57,12.0,23.0,94,0.00,,,0.00,,2013-02-26 03:21:00,
2013-02-25 21:32:00,35.0,33.0,29.96,NE,52,13.0,22.0,92,0.00,,,0.00,,2013-02-26 03:32:00,
2013-02-25 21:42:00,35.0,33.0,29.96,NE,52,13.0,22.0,92,0.00,,,0.00,,2013-02-26 03:42:00,
2013-02-25 21:52:00,35.0,33.0,29.96,NE,54,14.0,23.0,91,0.00,,,0.00,,2013-02-26 03:52:00,
2013-02-25 22:01:00,35.0,32.0,29.95,NE,40,13.0,22.0,89,0.00,,,0.00,,2013-02-26 04:01:00,
2013-02-25 22:11:00,35.0,32.0,29.95,NE,40,13.0,22.0,89,0.00,,,0.00,,2013-02-26 04:11:00,
2013-02-25 22:21:00,35.0,32.0,29.94,NE,43,13.0,23.0,89,0.00,,,0.00,,2013-02-26 04:21:00,
2013-02-25 22:32:00,34.0,32.0,29.92,NNE,25,14.0,20.0,94,0.00,,,0.00,,2013-02-26 04:32:00,
2013-02-25 22:42:00,34.0,32.0,29.92,NNE,25,14.0,20.0,94,0.00,,,0.00,,2013-02-26 04:42:00,
2013-02-25 22:51:00,34.0,33.0,29.91,NE,34,15.0,23.0,95,0.00,,,0.00,,2013-02-26 04:51:00,
2013-02-25 23:01:00,34.0,33.0,29.89,NE,35,17.0,23.0,95,0.00,,,0.00,,2013-02-26 05:01:00,
2013-02-25 23:11:00,34.0,33.0,29.89,NE,35,17.0,23.0,95,0.00,,,0.00,,2013-02-26 05:11:00,
2013-02-25 23:21:00,34.0,33.0,29.89,NNE,29,16.0,26.0,95,0.00,,,0.00,,2013-02-26 05:21:00,
2013-02-25 23:32:00,34.0,32.0,29.86,NNE,29,18.0,28.0,94,0.00,,,0.00,,2013-02-26 05:32:00,
2013-02-25 23:43:00,34.0,32.0,29.86,NNE,29,18.0,28.0,94,0.00,,,0.00,,2013-02-26 05:43:00,
2013-02-25 23:52:00,34.0,32.0,29.87,NE,38,18.0,29.0,92,0.00,,,0.00,,2013-02-26 05:52:00,